sensor_id;sensor_type;location;lat;lon;timestamp;P1;durP1;ratioP1;P2;durP2;ratioP2
43449;SDS011;29041;42.266;23.110;2024-01-15T00:00:14;15.48;;;5.75;;
43449;SDS011;29041;42.266;23.110;2024-01-15T00:03:03;16.90;;;8.55;;
43449;SDS011;29041;42.266;23.110;2024-01-15T00:05:51;22.52;;;9.40;;
43449;SDS011;29041;42.266;23.110;2024-01-15T00:08:38;19.60;;;10.00;;
43449;SDS011;29041;42.266;23.110;2024-01-15T00:11:25;13.07;;;7.47;;
43449;SDS011;29041;42.266;23.110;2024-01-15T00:14:13;19.13;;;9.20;;
43449;SDS011;29041;42.266;23.110;2024-01-15T00:17:05;23.90;;;9.30;;
43449;SDS011;29041;42.266;23.110;2024-01-15T00:19:56;19.98;;;10.48;;
43449;SDS011;29041;42.266;23.110;2024-01-15T00:22:43;21.88;;;10.60;;
43449;SDS011;29041;42.266;23.110;2024-01-15T00:25:30;22.45;;;9.13;;
43449;SDS011;29041;42.266;23.110;2024-01-15T00:28:17;28.65;;;10.77;;
43449;SDS011;29041;42.266;23.110;2024-01-15T00:31:04;30.55;;;12.88;;
43449;SDS011;29041;42.266;23.110;2024-01-15T00:33:51;22.45;;;9.90;;
43449;SDS011;29041;42.266;23.110;2024-01-15T00:36:41;23.40;;;12.88;;
43449;SDS011;29041;42.266;23.110;2024-01-15T00:39:29;16.60;;;10.77;;
43449;SDS011;29041;42.266;23.110;2024-01-15T00:42:16;37.55;;;13.60;;
43449;SDS011;29041;42.266;23.110;2024-01-15T00:45:03;27.27;;;15.10;;
43449;SDS011;29041;42.266;23.110;2024-01-15T00:47:53;33.15;;;11.75;;
43449;SDS011;29041;42.266;23.110;2024-01-15T00:50:41;23.90;;;10.35;;
43449;SDS011;29041;42.266;23.110;2024-01-15T00:53:30;23.70;;;10.82;;
43449;SDS011;29041;42.266;23.110;2024-01-15T00:56:17;28.58;;;13.40;;
43449;SDS011;29041;42.266;23.110;2024-01-15T00:59:04;22.08;;;12.10;;
43449;SDS011;29041;42.266;23.110;2024-01-15T01:01:51;26.55;;;13.27;;
43449;SDS011;29041;42.266;23.110;2024-01-15T01:04:39;31.15;;;10.48;;
43449;SDS011;29041;42.266;23.110;2024-01-15T01:07:26;21.05;;;9.98;;
43449;SDS011;29041;42.266;23.110;2024-01-15T01:10:15;26.20;;;10.80;;
43449;SDS011;29041;42.266;23.110;2024-01-15T01:13:02;13.63;;;8.02;;
43449;SDS011;29041;42.266;23.110;2024-01-15T01:15:50;16.83;;;8.35;;
43449;SDS011;29041;42.266;23.110;2024-01-15T01:18:37;20.63;;;10.77;;
43449;SDS011;29041;42.266;23.110;2024-01-15T01:21:24;21.20;;;9.35;;
43449;SDS011;29041;42.266;23.110;2024-01-15T01:24:11;23.60;;;10.88;;
43449;SDS011;29041;42.266;23.110;2024-01-15T01:27:00;23.67;;;9.32;;
43449;SDS011;29041;42.266;23.110;2024-01-15T01:29:48;19.25;;;8.13;;
43449;SDS011;29041;42.266;23.110;2024-01-15T01:32:35;19.30;;;9.77;;
43449;SDS011;29041;42.266;23.110;2024-01-15T01:35:22;24.60;;;12.07;;
43449;SDS011;29041;42.266;23.110;2024-01-15T01:38:10;15.75;;;10.10;;
43449;SDS011;29041;42.266;23.110;2024-01-15T01:40:57;20.05;;;11.88;;
43449;SDS011;29041;42.266;23.110;2024-01-15T01:43:46;23.05;;;9.45;;
43449;SDS011;29041;42.266;23.110;2024-01-15T01:46:33;14.15;;;10.38;;
43449;SDS011;29041;42.266;23.110;2024-01-15T01:49:24;14.95;;;8.30;;
43449;SDS011;29041;42.266;23.110;2024-01-15T01:52:13;25.42;;;12.63;;
43449;SDS011;29041;42.266;23.110;2024-01-15T01:55:01;21.27;;;10.35;;
43449;SDS011;29041;42.266;23.110;2024-01-15T01:57:51;21.48;;;9.93;;
43449;SDS011;29041;42.266;23.110;2024-01-15T02:00:40;16.40;;;9.18;;
43449;SDS011;29041;42.266;23.110;2024-01-15T02:03:31;25.00;;;8.35;;
43449;SDS011;29041;42.266;23.110;2024-01-15T02:06:18;16.35;;;6.25;;
43449;SDS011;29041;42.266;23.110;2024-01-15T02:09:06;12.95;;;4.57;;
43449;SDS011;29041;42.266;23.110;2024-01-15T02:11:55;19.38;;;9.00;;
43449;SDS011;29041;42.266;23.110;2024-01-15T02:14:42;11.85;;;6.55;;
43449;SDS011;29041;42.266;23.110;2024-01-15T02:17:31;18.95;;;7.32;;
43449;SDS011;29041;42.266;23.110;2024-01-15T02:20:18;26.75;;;9.95;;
43449;SDS011;29041;42.266;23.110;2024-01-15T02:23:09;12.80;;;6.78;;
43449;SDS011;29041;42.266;23.110;2024-01-15T02:25:57;14.43;;;6.38;;
43449;SDS011;29041;42.266;23.110;2024-01-15T02:28:44;9.98;;;6.00;;
43449;SDS011;29041;42.266;23.110;2024-01-15T02:31:32;9.90;;;5.97;;
43449;SDS011;29041;42.266;23.110;2024-01-15T02:34:19;13.50;;;7.20;;
43449;SDS011;29041;42.266;23.110;2024-01-15T02:37:06;13.77;;;7.38;;
43449;SDS011;29041;42.266;23.110;2024-01-15T02:39:56;15.35;;;7.43;;
43449;SDS011;29041;42.266;23.110;2024-01-15T02:42:43;20.20;;;7.65;;
43449;SDS011;29041;42.266;23.110;2024-01-15T02:45:30;20.95;;;9.05;;
43449;SDS011;29041;42.266;23.110;2024-01-15T02:48:17;26.10;;;11.45;;
43449;SDS011;29041;42.266;23.110;2024-01-15T02:51:05;20.13;;;10.57;;
43449;SDS011;29041;42.266;23.110;2024-01-15T02:53:52;14.40;;;8.65;;
43449;SDS011;29041;42.266;23.110;2024-01-15T02:56:41;27.73;;;10.35;;
43449;SDS011;29041;42.266;23.110;2024-01-15T02:59:29;11.52;;;5.22;;
43449;SDS011;29041;42.266;23.110;2024-01-15T03:02:16;21.75;;;7.53;;
43449;SDS011;29041;42.266;23.110;2024-01-15T03:05:04;13.98;;;7.72;;
43449;SDS011;29041;42.266;23.110;2024-01-15T03:07:54;19.45;;;8.55;;
43449;SDS011;29041;42.266;23.110;2024-01-15T03:10:42;12.88;;;10.75;;
43449;SDS011;29041;42.266;23.110;2024-01-15T03:13:39;18.70;;;8.57;;
43449;SDS011;29041;42.266;23.110;2024-01-15T03:16:27;14.35;;;7.78;;
43449;SDS011;29041;42.266;23.110;2024-01-15T03:19:14;18.83;;;8.18;;
43449;SDS011;29041;42.266;23.110;2024-01-15T03:22:04;19.98;;;9.13;;
43449;SDS011;29041;42.266;23.110;2024-01-15T03:24:53;14.27;;;9.82;;
43449;SDS011;29041;42.266;23.110;2024-01-15T03:27:40;25.02;;;10.48;;
43449;SDS011;29041;42.266;23.110;2024-01-15T03:30:29;13.32;;;9.13;;
43449;SDS011;29041;42.266;23.110;2024-01-15T03:33:16;24.00;;;11.45;;
43449;SDS011;29041;42.266;23.110;2024-01-15T03:36:04;19.45;;;8.88;;
43449;SDS011;29041;42.266;23.110;2024-01-15T03:38:51;17.38;;;11.15;;
43449;SDS011;29041;42.266;23.110;2024-01-15T03:41:49;17.13;;;10.30;;
43449;SDS011;29041;42.266;23.110;2024-01-15T03:44:36;17.83;;;10.35;;
43449;SDS011;29041;42.266;23.110;2024-01-15T03:47:25;19.00;;;9.10;;
43449;SDS011;29041;42.266;23.110;2024-01-15T03:50:13;10.68;;;6.70;;
43449;SDS011;29041;42.266;23.110;2024-01-15T03:53:05;22.70;;;9.35;;
43449;SDS011;29041;42.266;23.110;2024-01-15T03:55:52;35.38;;;14.45;;
43449;SDS011;29041;42.266;23.110;2024-01-15T03:58:40;29.38;;;13.80;;
43449;SDS011;29041;42.266;23.110;2024-01-15T04:01:27;23.13;;;10.45;;
43449;SDS011;29041;42.266;23.110;2024-01-15T04:04:16;35.60;;;17.00;;
43449;SDS011;29041;42.266;23.110;2024-01-15T04:07:04;22.05;;;11.52;;
43449;SDS011;29041;42.266;23.110;2024-01-15T04:09:51;22.77;;;11.52;;
43449;SDS011;29041;42.266;23.110;2024-01-15T04:12:39;21.25;;;12.60;;
43449;SDS011;29041;42.266;23.110;2024-01-15T04:15:26;15.15;;;11.43;;
43449;SDS011;29041;42.266;23.110;2024-01-15T04:18:13;30.73;;;10.90;;
43449;SDS011;29041;42.266;23.110;2024-01-15T04:21:07;17.70;;;10.27;;
43449;SDS011;29041;42.266;23.110;2024-01-15T04:23:54;20.17;;;10.43;;
43449;SDS011;29041;42.266;23.110;2024-01-15T04:26:41;15.77;;;8.60;;
43449;SDS011;29041;42.266;23.110;2024-01-15T04:29:28;15.25;;;10.05;;
43449;SDS011;29041;42.266;23.110;2024-01-15T04:32:15;24.23;;;11.80;;
43449;SDS011;29041;42.266;23.110;2024-01-15T04:35:02;15.13;;;9.70;;
43449;SDS011;29041;42.266;23.110;2024-01-15T04:37:51;25.20;;;11.95;;
43449;SDS011;29041;42.266;23.110;2024-01-15T04:40:39;17.17;;;8.25;;
43449;SDS011;29041;42.266;23.110;2024-01-15T04:43:26;42.25;;;18.15;;
43449;SDS011;29041;42.266;23.110;2024-01-15T04:46:13;13.63;;;9.90;;
43449;SDS011;29041;42.266;23.110;2024-01-15T04:49:00;14.25;;;8.45;;
43449;SDS011;29041;42.266;23.110;2024-01-15T04:51:47;16.52;;;6.10;;
43449;SDS011;29041;42.266;23.110;2024-01-15T04:54:36;14.80;;;8.30;;
43449;SDS011;29041;42.266;23.110;2024-01-15T04:57:23;17.58;;;10.23;;
43449;SDS011;29041;42.266;23.110;2024-01-15T05:00:10;22.52;;;11.02;;
43449;SDS011;29041;42.266;23.110;2024-01-15T05:02:59;12.50;;;7.97;;
43449;SDS011;29041;42.266;23.110;2024-01-15T05:05:46;17.27;;;10.85;;
43449;SDS011;29041;42.266;23.110;2024-01-15T05:08:33;32.70;;;8.68;;
43449;SDS011;29041;42.266;23.110;2024-01-15T05:11:22;21.98;;;11.10;;
43449;SDS011;29041;42.266;23.110;2024-01-15T05:14:09;14.15;;;8.95;;
43449;SDS011;29041;42.266;23.110;2024-01-15T05:16:56;8.75;;;6.55;;
43449;SDS011;29041;42.266;23.110;2024-01-15T05:19:43;26.15;;;9.55;;
43449;SDS011;29041;42.266;23.110;2024-01-15T05:22:31;18.90;;;10.98;;
43449;SDS011;29041;42.266;23.110;2024-01-15T05:25:18;32.60;;;12.52;;
43449;SDS011;29041;42.266;23.110;2024-01-15T05:28:07;14.57;;;9.13;;
43449;SDS011;29041;42.266;23.110;2024-01-15T05:30:55;14.00;;;9.90;;
43449;SDS011;29041;42.266;23.110;2024-01-15T05:33:42;14.27;;;8.77;;
43449;SDS011;29041;42.266;23.110;2024-01-15T05:36:29;21.70;;;10.93;;
43449;SDS011;29041;42.266;23.110;2024-01-15T05:39:16;15.68;;;9.90;;
43449;SDS011;29041;42.266;23.110;2024-01-15T05:42:03;20.65;;;13.70;;
43449;SDS011;29041;42.266;23.110;2024-01-15T05:44:52;29.92;;;17.27;;
43449;SDS011;29041;42.266;23.110;2024-01-15T05:47:40;24.58;;;12.50;;
43449;SDS011;29041;42.266;23.110;2024-01-15T05:50:27;15.05;;;10.60;;
43449;SDS011;29041;42.266;23.110;2024-01-15T05:53:14;15.23;;;10.30;;
43449;SDS011;29041;42.266;23.110;2024-01-15T05:56:01;24.10;;;12.40;;
43449;SDS011;29041;42.266;23.110;2024-01-15T05:58:48;14.82;;;8.73;;
43449;SDS011;29041;42.266;23.110;2024-01-15T06:01:37;21.00;;;14.07;;
43449;SDS011;29041;42.266;23.110;2024-01-15T06:04:24;61.33;;;26.67;;
43449;SDS011;29041;42.266;23.110;2024-01-15T06:07:11;25.38;;;15.57;;
43449;SDS011;29041;42.266;23.110;2024-01-15T06:09:58;15.52;;;12.38;;
43449;SDS011;29041;42.266;23.110;2024-01-15T06:12:46;33.00;;;17.60;;
43449;SDS011;29041;42.266;23.110;2024-01-15T06:15:33;26.25;;;13.02;;
43449;SDS011;29041;42.266;23.110;2024-01-15T06:18:21;23.27;;;12.60;;
43449;SDS011;29041;42.266;23.110;2024-01-15T06:21:09;23.73;;;14.05;;
43449;SDS011;29041;42.266;23.110;2024-01-15T06:23:58;24.40;;;12.43;;
43449;SDS011;29041;42.266;23.110;2024-01-15T06:26:46;20.13;;;11.93;;
43449;SDS011;29041;42.266;23.110;2024-01-15T06:29:33;16.65;;;10.38;;
43449;SDS011;29041;42.266;23.110;2024-01-15T06:32:20;21.83;;;11.23;;
43449;SDS011;29041;42.266;23.110;2024-01-15T06:35:09;12.90;;;6.03;;
43449;SDS011;29041;42.266;23.110;2024-01-15T06:37:57;25.35;;;12.07;;
43449;SDS011;29041;42.266;23.110;2024-01-15T06:40:44;29.25;;;11.90;;
43449;SDS011;29041;42.266;23.110;2024-01-15T06:43:33;24.25;;;12.05;;
43449;SDS011;29041;42.266;23.110;2024-01-15T06:46:20;19.95;;;10.25;;
43449;SDS011;29041;42.266;23.110;2024-01-15T06:49:08;20.52;;;11.52;;
43449;SDS011;29041;42.266;23.110;2024-01-15T06:51:57;10.90;;;9.07;;
43449;SDS011;29041;42.266;23.110;2024-01-15T06:54:44;23.00;;;11.57;;
43449;SDS011;29041;42.266;23.110;2024-01-15T06:57:31;23.13;;;10.88;;
43449;SDS011;29041;42.266;23.110;2024-01-15T07:00:19;24.02;;;12.30;;
43449;SDS011;29041;42.266;23.110;2024-01-15T07:03:06;16.58;;;9.98;;
43449;SDS011;29041;42.266;23.110;2024-01-15T07:05:53;20.92;;;12.73;;
43449;SDS011;29041;42.266;23.110;2024-01-15T07:08:42;23.42;;;11.90;;
43449;SDS011;29041;42.266;23.110;2024-01-15T07:11:29;17.10;;;10.00;;
43449;SDS011;29041;42.266;23.110;2024-01-15T07:14:16;20.67;;;11.80;;
43449;SDS011;29041;42.266;23.110;2024-01-15T07:17:03;28.65;;;12.52;;
43449;SDS011;29041;42.266;23.110;2024-01-15T07:19:50;30.25;;;16.02;;
43449;SDS011;29041;42.266;23.110;2024-01-15T07:22:38;42.13;;;16.88;;
43449;SDS011;29041;42.266;23.110;2024-01-15T07:25:26;23.60;;;11.90;;
43449;SDS011;29041;42.266;23.110;2024-01-15T07:28:13;25.17;;;12.10;;
43449;SDS011;29041;42.266;23.110;2024-01-15T07:31:01;31.88;;;14.07;;
43449;SDS011;29041;42.266;23.110;2024-01-15T07:33:49;39.40;;;14.98;;
43449;SDS011;29041;42.266;23.110;2024-01-15T07:36:36;43.85;;;14.75;;
43449;SDS011;29041;42.266;23.110;2024-01-15T07:39:23;31.75;;;15.77;;
43449;SDS011;29041;42.266;23.110;2024-01-15T07:42:17;40.53;;;16.27;;
43449;SDS011;29041;42.266;23.110;2024-01-15T07:45:05;29.23;;;13.85;;
43449;SDS011;29041;42.266;23.110;2024-01-15T07:47:52;30.00;;;13.85;;
43449;SDS011;29041;42.266;23.110;2024-01-15T07:50:40;29.35;;;14.05;;
43449;SDS011;29041;42.266;23.110;2024-01-15T07:53:28;22.30;;;11.93;;
43449;SDS011;29041;42.266;23.110;2024-01-15T07:56:15;31.25;;;15.27;;
43449;SDS011;29041;42.266;23.110;2024-01-15T07:59:04;34.45;;;14.90;;
43449;SDS011;29041;42.266;23.110;2024-01-15T08:01:51;39.28;;;17.20;;
43449;SDS011;29041;42.266;23.110;2024-01-15T08:04:38;34.17;;;18.15;;
43449;SDS011;29041;42.266;23.110;2024-01-15T08:07:25;37.13;;;16.98;;
43449;SDS011;29041;42.266;23.110;2024-01-15T08:10:12;30.92;;;16.13;;
43449;SDS011;29041;42.266;23.110;2024-01-15T08:12:59;38.05;;;18.42;;
43449;SDS011;29041;42.266;23.110;2024-01-15T08:15:48;38.85;;;16.98;;
43449;SDS011;29041;42.266;23.110;2024-01-15T08:18:36;30.50;;;15.13;;
43449;SDS011;29041;42.266;23.110;2024-01-15T08:21:23;43.47;;;18.38;;
43449;SDS011;29041;42.266;23.110;2024-01-15T08:24:10;43.63;;;20.60;;
43449;SDS011;29041;42.266;23.110;2024-01-15T08:27:02;26.65;;;14.93;;
43449;SDS011;29041;42.266;23.110;2024-01-15T08:29:50;22.90;;;12.95;;
43449;SDS011;29041;42.266;23.110;2024-01-15T08:32:38;33.15;;;16.88;;
43449;SDS011;29041;42.266;23.110;2024-01-15T08:35:27;30.90;;;13.40;;
43449;SDS011;29041;42.266;23.110;2024-01-15T08:38:15;35.72;;;17.85;;
43449;SDS011;29041;42.266;23.110;2024-01-15T08:41:02;49.65;;;21.00;;
43449;SDS011;29041;42.266;23.110;2024-01-15T08:43:49;53.92;;;24.67;;
43449;SDS011;29041;42.266;23.110;2024-01-15T08:46:38;53.72;;;21.50;;
43449;SDS011;29041;42.266;23.110;2024-01-15T08:49:27;40.70;;;17.73;;
43449;SDS011;29041;42.266;23.110;2024-01-15T08:52:14;94.43;;;33.60;;
43449;SDS011;29041;42.266;23.110;2024-01-15T08:55:01;49.72;;;19.67;;
43449;SDS011;29041;42.266;23.110;2024-01-15T08:57:49;45.80;;;20.17;;
43449;SDS011;29041;42.266;23.110;2024-01-15T09:00:37;29.70;;;17.58;;
43449;SDS011;29041;42.266;23.110;2024-01-15T09:03:24;38.47;;;17.15;;
43449;SDS011;29041;42.266;23.110;2024-01-15T09:06:13;45.75;;;21.83;;
43449;SDS011;29041;42.266;23.110;2024-01-15T09:09:00;40.53;;;19.58;;
43449;SDS011;29041;42.266;23.110;2024-01-15T09:11:47;42.25;;;20.77;;
43449;SDS011;29041;42.266;23.110;2024-01-15T09:14:35;50.20;;;19.95;;
43449;SDS011;29041;42.266;23.110;2024-01-15T09:17:22;46.53;;;20.08;;
43449;SDS011;29041;42.266;23.110;2024-01-15T09:20:14;70.43;;;30.00;;
43449;SDS011;29041;42.266;23.110;2024-01-15T09:23:03;55.70;;;21.07;;
43449;SDS011;29041;42.266;23.110;2024-01-15T09:25:50;45.85;;;19.30;;
43449;SDS011;29041;42.266;23.110;2024-01-15T09:28:38;46.35;;;18.77;;
43449;SDS011;29041;42.266;23.110;2024-01-15T09:31:25;65.43;;;26.58;;
43449;SDS011;29041;42.266;23.110;2024-01-15T09:34:12;36.03;;;17.30;;
43449;SDS011;29041;42.266;23.110;2024-01-15T09:36:59;33.05;;;14.95;;
43449;SDS011;29041;42.266;23.110;2024-01-15T09:39:48;36.00;;;16.90;;
43449;SDS011;29041;42.266;23.110;2024-01-15T09:42:35;34.42;;;14.98;;
43449;SDS011;29041;42.266;23.110;2024-01-15T09:45:22;38.13;;;18.13;;
43449;SDS011;29041;42.266;23.110;2024-01-15T09:48:10;45.63;;;14.90;;
43449;SDS011;29041;42.266;23.110;2024-01-15T09:50:58;33.05;;;14.77;;
43449;SDS011;29041;42.266;23.110;2024-01-15T09:53:45;18.55;;;8.35;;
43449;SDS011;29041;42.266;23.110;2024-01-15T09:56:35;24.13;;;9.18;;
43449;SDS011;29041;42.266;23.110;2024-01-15T09:59:22;14.98;;;7.88;;
43449;SDS011;29041;42.266;23.110;2024-01-15T10:02:11;15.05;;;8.15;;
43449;SDS011;29041;42.266;23.110;2024-01-15T10:05:03;13.15;;;7.95;;
43449;SDS011;29041;42.266;23.110;2024-01-15T10:07:51;10.98;;;6.85;;
43449;SDS011;29041;42.266;23.110;2024-01-15T10:10:41;17.85;;;8.50;;
43449;SDS011;29041;42.266;23.110;2024-01-15T10:13:29;18.05;;;8.40;;
43449;SDS011;29041;42.266;23.110;2024-01-15T10:16:17;20.13;;;8.52;;
43449;SDS011;29041;42.266;23.110;2024-01-15T10:19:04;16.13;;;6.90;;
43449;SDS011;29041;42.266;23.110;2024-01-15T10:21:51;12.90;;;6.90;;
43449;SDS011;29041;42.266;23.110;2024-01-15T10:24:39;16.35;;;7.05;;
43449;SDS011;29041;42.266;23.110;2024-01-15T10:27:27;15.45;;;6.65;;
43449;SDS011;29041;42.266;23.110;2024-01-15T10:30:16;18.40;;;7.28;;
43449;SDS011;29041;42.266;23.110;2024-01-15T10:33:03;14.45;;;7.25;;
43449;SDS011;29041;42.266;23.110;2024-01-15T10:35:51;17.00;;;7.55;;
43449;SDS011;29041;42.266;23.110;2024-01-15T10:38:41;25.33;;;10.43;;
43449;SDS011;29041;42.266;23.110;2024-01-15T10:41:28;22.55;;;8.90;;
43449;SDS011;29041;42.266;23.110;2024-01-15T10:44:15;18.10;;;8.43;;
43449;SDS011;29041;42.266;23.110;2024-01-15T10:47:04;16.90;;;6.05;;
43449;SDS011;29041;42.266;23.110;2024-01-15T10:49:52;12.52;;;5.85;;
43449;SDS011;29041;42.266;23.110;2024-01-15T10:52:40;12.18;;;5.95;;
43449;SDS011;29041;42.266;23.110;2024-01-15T10:55:28;9.55;;;5.45;;
43449;SDS011;29041;42.266;23.110;2024-01-15T10:58:17;14.68;;;7.65;;
43449;SDS011;29041;42.266;23.110;2024-01-15T11:01:10;16.17;;;7.07;;
43449;SDS011;29041;42.266;23.110;2024-01-15T11:03:59;13.38;;;6.50;;
43449;SDS011;29041;42.266;23.110;2024-01-15T11:06:48;15.10;;;6.70;;
43449;SDS011;29041;42.266;23.110;2024-01-15T11:09:37;14.75;;;7.88;;
43449;SDS011;29041;42.266;23.110;2024-01-15T11:12:24;17.98;;;8.15;;
43449;SDS011;29041;42.266;23.110;2024-01-15T11:15:17;16.83;;;9.07;;
43449;SDS011;29041;42.266;23.110;2024-01-15T11:18:06;18.40;;;8.40;;
43449;SDS011;29041;42.266;23.110;2024-01-15T11:27:23;18.10;;;8.73;;
43449;SDS011;29041;42.266;23.110;2024-01-15T11:30:27;13.18;;;7.80;;
43449;SDS011;29041;42.266;23.110;2024-01-15T11:36:19;14.35;;;6.88;;
43449;SDS011;29041;42.266;23.110;2024-01-15T11:42:29;17.98;;;10.35;;
43449;SDS011;29041;42.266;23.110;2024-01-15T11:45:17;28.90;;;17.05;;
43449;SDS011;29041;42.266;23.110;2024-01-15T11:48:09;30.30;;;13.25;;
43449;SDS011;29041;42.266;23.110;2024-01-15T11:50:58;37.83;;;12.07;;
43449;SDS011;29041;42.266;23.110;2024-01-15T11:53:47;21.67;;;10.70;;
43449;SDS011;29041;42.266;23.110;2024-01-15T11:56:39;12.65;;;7.47;;
43449;SDS011;29041;42.266;23.110;2024-01-15T11:59:27;15.55;;;8.05;;
43449;SDS011;29041;42.266;23.110;2024-01-15T12:02:15;12.85;;;6.68;;
43449;SDS011;29041;42.266;23.110;2024-01-15T12:05:02;12.73;;;6.25;;
43449;SDS011;29041;42.266;23.110;2024-01-15T12:07:49;15.55;;;7.75;;
43449;SDS011;29041;42.266;23.110;2024-01-15T12:10:42;13.13;;;7.20;;
43449;SDS011;29041;42.266;23.110;2024-01-15T12:13:30;14.20;;;4.65;;
43449;SDS011;29041;42.266;23.110;2024-01-15T12:16:18;16.63;;;7.22;;
43449;SDS011;29041;42.266;23.110;2024-01-15T12:19:05;20.58;;;8.13;;
43449;SDS011;29041;42.266;23.110;2024-01-15T12:21:53;15.02;;;6.75;;
43449;SDS011;29041;42.266;23.110;2024-01-15T12:24:41;7.80;;;4.60;;
43449;SDS011;29041;42.266;23.110;2024-01-15T12:27:28;11.98;;;3.92;;
43449;SDS011;29041;42.266;23.110;2024-01-15T12:30:17;7.40;;;5.03;;
43449;SDS011;29041;42.266;23.110;2024-01-15T12:33:04;11.25;;;5.25;;
43449;SDS011;29041;42.266;23.110;2024-01-15T12:35:53;11.43;;;4.97;;
43449;SDS011;29041;42.266;23.110;2024-01-15T12:38:40;14.07;;;5.25;;
43449;SDS011;29041;42.266;23.110;2024-01-15T12:41:27;18.17;;;9.55;;
43449;SDS011;29041;42.266;23.110;2024-01-15T12:44:14;17.02;;;8.80;;
43449;SDS011;29041;42.266;23.110;2024-01-15T12:47:03;13.77;;;6.95;;
43449;SDS011;29041;42.266;23.110;2024-01-15T12:49:51;8.48;;;3.92;;
43449;SDS011;29041;42.266;23.110;2024-01-15T12:52:40;18.40;;;5.70;;
43449;SDS011;29041;42.266;23.110;2024-01-15T12:55:27;13.35;;;3.85;;
43449;SDS011;29041;42.266;23.110;2024-01-15T12:58:14;3.67;;;2.80;;
43449;SDS011;29041;42.266;23.110;2024-01-15T13:01:02;13.77;;;5.82;;
43449;SDS011;29041;42.266;23.110;2024-01-15T13:03:50;11.02;;;6.00;;
43449;SDS011;29041;42.266;23.110;2024-01-15T13:06:37;7.88;;;4.53;;
43449;SDS011;29041;42.266;23.110;2024-01-15T13:09:24;9.43;;;5.20;;
43449;SDS011;29041;42.266;23.110;2024-01-15T13:12:11;10.85;;;4.13;;
43449;SDS011;29041;42.266;23.110;2024-01-15T13:14:59;10.35;;;5.45;;
43449;SDS011;29041;42.266;23.110;2024-01-15T13:17:48;12.07;;;4.93;;
43449;SDS011;29041;42.266;23.110;2024-01-15T13:20:42;19.35;;;4.95;;
43449;SDS011;29041;42.266;23.110;2024-01-15T13:23:31;15.35;;;7.47;;
43449;SDS011;29041;42.266;23.110;2024-01-15T13:26:18;11.73;;;5.65;;
43449;SDS011;29041;42.266;23.110;2024-01-15T13:29:05;7.50;;;5.15;;
43449;SDS011;29041;42.266;23.110;2024-01-15T13:31:53;9.57;;;3.50;;
43449;SDS011;29041;42.266;23.110;2024-01-15T13:34:40;9.93;;;3.38;;
43449;SDS011;29041;42.266;23.110;2024-01-15T13:37:29;6.97;;;3.65;;
43449;SDS011;29041;42.266;23.110;2024-01-15T13:40:16;13.60;;;6.05;;
43449;SDS011;29041;42.266;23.110;2024-01-15T13:43:05;12.82;;;5.50;;
43449;SDS011;29041;42.266;23.110;2024-01-15T13:45:53;15.63;;;6.55;;
43449;SDS011;29041;42.266;23.110;2024-01-15T13:48:40;23.45;;;9.45;;
43449;SDS011;29041;42.266;23.110;2024-01-15T13:51:37;8.52;;;4.80;;
43449;SDS011;29041;42.266;23.110;2024-01-15T13:54:27;31.45;;;11.90;;
43449;SDS011;29041;42.266;23.110;2024-01-15T13:57:14;5.85;;;4.97;;
43449;SDS011;29041;42.266;23.110;2024-01-15T14:00:01;17.35;;;7.13;;
43449;SDS011;29041;42.266;23.110;2024-01-15T14:02:55;13.80;;;5.35;;
43449;SDS011;29041;42.266;23.110;2024-01-15T14:05:43;13.90;;;5.68;;
43449;SDS011;29041;42.266;23.110;2024-01-15T14:08:30;8.40;;;3.95;;
43449;SDS011;29041;42.266;23.110;2024-01-15T14:11:18;12.68;;;5.60;;
43449;SDS011;29041;42.266;23.110;2024-01-15T14:14:05;16.17;;;6.68;;
43449;SDS011;29041;42.266;23.110;2024-01-15T14:16:53;10.82;;;5.65;;
43449;SDS011;29041;42.266;23.110;2024-01-15T14:19:40;11.23;;;5.47;;
43449;SDS011;29041;42.266;23.110;2024-01-15T14:22:28;32.22;;;14.55;;
43449;SDS011;29041;42.266;23.110;2024-01-15T14:25:15;20.80;;;9.88;;
43449;SDS011;29041;42.266;23.110;2024-01-15T14:28:04;27.40;;;11.57;;
43449;SDS011;29041;42.266;23.110;2024-01-15T14:30:52;47.80;;;15.57;;
43449;SDS011;29041;42.266;23.110;2024-01-15T14:33:39;14.43;;;7.13;;
43449;SDS011;29041;42.266;23.110;2024-01-15T14:36:26;9.95;;;5.03;;
43449;SDS011;29041;42.266;23.110;2024-01-15T14:39:13;14.57;;;5.93;;
43449;SDS011;29041;42.266;23.110;2024-01-15T14:42:05;9.35;;;3.97;;
43449;SDS011;29041;42.266;23.110;2024-01-15T14:44:54;46.88;;;17.75;;
43449;SDS011;29041;42.266;23.110;2024-01-15T14:47:41;4.00;;;2.53;;
43449;SDS011;29041;42.266;23.110;2024-01-15T14:50:29;10.50;;;4.30;;
43449;SDS011;29041;42.266;23.110;2024-01-15T14:53:16;14.35;;;5.57;;
43449;SDS011;29041;42.266;23.110;2024-01-15T14:56:03;11.27;;;5.80;;
43449;SDS011;29041;42.266;23.110;2024-01-15T14:58:51;5.50;;;3.67;;
43449;SDS011;29041;42.266;23.110;2024-01-15T15:01:39;3.45;;;2.20;;
43449;SDS011;29041;42.266;23.110;2024-01-15T15:04:27;11.88;;;4.78;;
43449;SDS011;29041;42.266;23.110;2024-01-15T15:07:15;27.67;;;6.97;;
43449;SDS011;29041;42.266;23.110;2024-01-15T15:10:02;27.85;;;10.65;;
43449;SDS011;29041;42.266;23.110;2024-01-15T15:12:50;29.08;;;11.82;;
43449;SDS011;29041;42.266;23.110;2024-01-15T15:15:37;14.13;;;7.43;;
43449;SDS011;29041;42.266;23.110;2024-01-15T15:18:25;14.35;;;7.35;;
43449;SDS011;29041;42.266;23.110;2024-01-15T15:21:12;13.40;;;6.80;;
43449;SDS011;29041;42.266;23.110;2024-01-15T15:23:59;7.15;;;4.45;;
43449;SDS011;29041;42.266;23.110;2024-01-15T15:26:47;15.60;;;5.95;;
43449;SDS011;29041;42.266;23.110;2024-01-15T15:29:35;10.05;;;5.20;;
43449;SDS011;29041;42.266;23.110;2024-01-15T15:32:22;8.02;;;2.95;;
43449;SDS011;29041;42.266;23.110;2024-01-15T15:35:11;9.48;;;3.70;;
43449;SDS011;29041;42.266;23.110;2024-01-15T15:37:58;8.85;;;4.68;;
43449;SDS011;29041;42.266;23.110;2024-01-15T15:40:46;5.95;;;3.10;;
43449;SDS011;29041;42.266;23.110;2024-01-15T15:43:33;4.32;;;2.33;;
43449;SDS011;29041;42.266;23.110;2024-01-15T15:46:20;7.28;;;3.50;;
43449;SDS011;29041;42.266;23.110;2024-01-15T15:49:07;3.47;;;2.47;;
43449;SDS011;29041;42.266;23.110;2024-01-15T15:51:56;5.15;;;3.03;;
43449;SDS011;29041;42.266;23.110;2024-01-15T15:54:43;5.22;;;2.75;;
43449;SDS011;29041;42.266;23.110;2024-01-15T15:57:30;12.35;;;3.83;;
43449;SDS011;29041;42.266;23.110;2024-01-15T16:00:17;4.35;;;1.95;;
43449;SDS011;29041;42.266;23.110;2024-01-15T16:03:05;4.00;;;2.45;;
43449;SDS011;29041;42.266;23.110;2024-01-15T16:05:52;8.45;;;2.25;;
43449;SDS011;29041;42.266;23.110;2024-01-15T16:08:45;3.67;;;1.67;;
43449;SDS011;29041;42.266;23.110;2024-01-15T16:11:32;4.20;;;2.38;;
43449;SDS011;29041;42.266;23.110;2024-01-15T16:14:19;4.65;;;1.85;;
43449;SDS011;29041;42.266;23.110;2024-01-15T16:17:07;24.90;;;9.52;;
43449;SDS011;29041;42.266;23.110;2024-01-15T16:19:54;15.63;;;6.05;;
43449;SDS011;29041;42.266;23.110;2024-01-15T16:22:41;10.05;;;4.82;;
43449;SDS011;29041;42.266;23.110;2024-01-15T16:25:30;7.22;;;2.25;;
43449;SDS011;29041;42.266;23.110;2024-01-15T16:28:17;7.47;;;4.00;;
43449;SDS011;29041;42.266;23.110;2024-01-15T16:31:04;16.40;;;6.30;;